Time;durP1;ratioP1;P1;durP2;ratioP2;P2;SDS_P1;SDS_P2;PMS_P1;PMS_P2;Temp;Humidity;BMP_temperature;BMP_pressure;BME280_temperature;BME280_humidity;BME280_pressure;Samples;Min_cycle;Max_cycle;Signal;HPM_P1;HPM_P2
2022/07/31 00:00:34;;;;;;;;;7.80;7.80;;;;;20.83;47.82;100081.31;5137149;27;8841;-62
2022/07/31 00:03:01;;;;;;;;;4.40;4.00;;;;;20.81;47.99;100074.41;5133961;27;9497;-62
2022/07/31 00:05:29;;;;;;;;;7.00;7.00;;;;;20.78;48.19;100075.59;5120169;27;8913;-62
2022/07/31 00:07:58;;;;;;;;;7.40;6.60;;;;;20.75;48.04;100069.72;5116214;27;8852;-62
2022/07/31 00:10:25;;;;;;;;;7.00;7.00;;;;;20.72;47.88;100070.09;5116164;28;8812;-62
2022/07/31 00:12:53;;;;;;;;;7.40;7.40;;;;;20.71;47.88;100070.25;5117211;28;8845;-62
2022/07/31 00:15:21;;;;;;;;;4.60;4.00;;;;;20.69;47.94;100065.03;5117350;27;8954;-62
2022/07/31 00:17:49;;;;;;;;;7.60;7.20;;;;;20.65;48.40;100066.44;5136606;27;8963;-62
2022/07/31 00:20:17;;;;;;;;;7.00;5.80;;;;;20.63;48.22;100064.94;5135093;27;8813;-62
2022/07/31 00:22:44;;;;;;;;;7.60;7.60;;;;;20.60;48.17;100058.00;5135737;27;9733;-62
2022/07/31 00:25:12;;;;;;;;;7.20;7.20;;;;;20.58;48.54;100065.47;5122658;27;8820;-62
2022/07/31 00:27:40;;;;;;;;;7.60;7.60;;;;;20.55;48.29;100060.41;5119655;27;8818;-62
2022/07/31 00:30:08;;;;;;;;;4.40;4.40;;;;;20.52;48.72;100057.22;5135859;27;8861;-62
2022/07/31 00:32:36;;;;;;;;;9.60;8.80;;;;;20.45;48.51;100062.53;5135859;27;8826;-62
2022/07/31 00:35:04;;;;;;;;;8.60;8.60;;;;;20.37;48.74;100057.19;5135050;27;8839;-62
2022/07/31 00:37:32;;;;;;;;;11.00;10.80;;;;;20.30;48.80;100058.94;5136003;27;8853;-62
2022/07/31 00:40:00;;;;;;;;;7.00;7.00;;;;;20.24;48.95;100056.94;5116433;28;8808;-62
2022/07/31 00:42:28;;;;;;;;;7.80;7.80;;;;;20.18;49.37;100057.66;5116814;28;8958;-62
2022/07/31 00:44:56;;;;;;;;;8.40;8.00;;;;;20.12;49.33;100057.56;5116193;27;8858;-61
2022/07/31 00:47:26;;;;;;;;;7.60;7.00;;;;;20.05;49.71;100045.78;5116140;28;8839;-62
2022/07/31 00:49:56;;;;;;;;;9.20;7.80;;;;;19.98;49.62;100045.63;5116614;27;8876;-62
2022/07/31 00:52:24;;;;;;;;;8.40;7.60;;;;;19.94;50.01;100038.88;5132139;27;8822;-65
2022/07/31 00:54:52;;;;;;;;;8.00;7.40;;;;;19.91;49.75;100041.09;5134930;27;8811;-62
2022/07/31 00:57:20;;;;;;;;;6.60;6.60;;;;;19.85;49.79;100039.97;5116423;27;8823;-62
2022/07/31 00:59:47;;;;;;;;;10.00;8.40;;;;;19.82;49.89;100034.91;5136207;27;8842;-62
2022/07/31 01:02:15;;;;;;;;;9.20;8.60;;;;;19.78;49.80;100044.38;5136382;27;8844;-62
2022/07/31 01:04:43;;;;;;;;;8.00;7.60;;;;;19.75;49.97;100039.34;5135225;27;8946;-62
2022/07/31 01:07:13;;;;;;;;;9.80;8.00;;;;;19.71;50.40;100032.59;5136133;27;8798;-62
2022/07/31 01:09:41;;;;;;;;;7.00;7.00;;;;;19.70;50.07;100043.59;5135211;27;8821;-63
2022/07/31 01:12:09;;;;;;;;;6.60;5.80;;;;;19.67;50.62;100039.41;5136495;27;8914;-62
2022/07/31 01:14:36;;;;;;;;;9.00;7.80;;;;;19.63;50.43;100035.34;5136527;27;8852;-62
2022/07/31 01:17:05;;;;;;;;;7.20;7.00;;;;;19.59;50.52;100038.59;5116220;28;8954;-61
2022/07/31 01:19:33;;;;;;;;;7.80;7.00;;;;;19.55;50.54;100038.09;5116031;28;8843;-62
2022/07/31 01:22:09;;;;;;;;;7.00;7.00;;;;;19.48;50.83;100034.41;5116718;28;9607;-62
2022/07/31 01:24:57;;;;;;;;;5.60;5.60;;;;;19.40;50.90;100034.47;5117428;27;8928;-62
2022/07/31 01:27:24;;;;;;;;;10.00;8.20;;;;;19.35;50.81;100036.84;5131252;27;8831;-61
2022/07/31 01:29:53;;;;;;;;;5.80;4.80;;;;;19.30;51.10;100039.25;5131132;27;9548;-62
2022/07/31 01:32:21;;;;;;;;;1.00;1.00;;;;;19.26;51.06;100031.66;5114440;28;8978;-62
2022/07/31 01:34:54;;;;;;;;;6.20;5.20;;;;;19.21;51.34;100028.63;5095269;28;8983;-62
2022/07/31 01:37:22;;;;;;;;;8.00;7.00;;;;;19.16;50.84;100031.84;5093895;28;8926;-67
2022/07/31 01:39:50;;;;;;;;;7.20;7.00;;;;;19.12;51.35;100035.88;5094463;28;8861;-62
2022/07/31 01:42:17;;;;;;;;;3.20;3.20;;;;;19.08;51.04;100039.97;5094277;28;8964;-62
2022/07/31 01:44:45;;;;;;;;;8.80;7.80;;;;;19.05;51.51;100031.38;5094738;28;8845;-62
2022/07/31 01:47:13;;;;;;;;;7.40;7.40;;;;;19.00;51.44;100025.63;5095664;28;8852;-63
2022/07/31 01:49:41;;;;;;;;;7.60;5.80;;;;;18.96;51.55;100033.22;5097822;28;8846;-62
2022/07/31 01:52:09;;;;;;;;;9.20;8.20;;;;;18.93;51.42;100030.03;5102795;28;8937;-62
2022/07/31 01:54:36;;;;;;;;;8.60;7.80;;;;;18.87;52.05;100031.56;5098918;28;8849;-62
2022/07/31 01:57:05;;;;;;;;;5.80;4.40;;;;;18.83;51.98;100032.09;5101259;28;8849;-61
2022/07/31 01:59:32;;;;;;;;;8.80;7.00;;;;;18.76;51.76;100029.22;5119231;28;8839;-62
2022/07/31 02:02:02;;;;;;;;;11.20;9.20;;;;;18.70;52.03;100024.53;5099692;28;8840;-62
2022/07/31 02:04:31;;;;;;;;;6.00;5.80;;;;;18.64;51.99;100029.75;5098671;28;8821;-62
2022/07/31 02:07:00;;;;;;;;;6.80;6.00;;;;;18.56;52.26;100033.31;5098768;28;8848;-62
2022/07/31 02:09:27;;;;;;;;;8.00;8.00;;;;;18.49;52.59;100023.38;5098566;28;8850;-62
2022/07/31 02:11:55;;;;;;;;;7.00;6.40;;;;;18.42;52.45;100022.38;5098256;28;8943;-61
2022/07/31 02:14:23;;;;;;;;;6.40;6.40;;;;;18.37;52.78;100028.28;5112432;28;8822;-63
2022/07/31 02:16:51;;;;;;;;;10.00;9.00;;;;;18.32;52.75;100014.47;5118256;28;8935;-62
2022/07/31 02:19:19;;;;;;;;;9.20;9.20;;;;;18.27;52.54;100011.41;5118738;28;8817;-62
2022/07/31 02:21:49;;;;;;;;;9.40;7.80;;;;;18.23;52.62;100018.13;5118344;28;8820;-62
2022/07/31 02:24:17;;;;;;;;;7.00;6.80;;;;;18.17;52.78;100016.13;5118627;28;8897;-62
2022/07/31 02:26:45;;;;;;;;;7.80;7.80;;;;;18.14;53.46;100007.53;5117370;28;8848;-62
2022/07/31 02:29:12;;;;;;;;;8.00;6.00;;;;;18.12;53.11;100013.09;5106726;28;8933;-62
2022/07/31 02:31:47;;;;;;;;;11.20;8.20;;;;;18.09;52.84;100010.72;5098259;28;8814;-62
2022/07/31 02:34:29;;;;;;;;;9.20;9.00;;;;;18.08;53.04;100010.91;5096465;28;8842;-62
2022/07/31 02:36:57;;;;;;;;;12.20;10.40;;;;;18.05;53.21;100006.69;5113157;28;8838;-62
2022/07/31 02:39:24;;;;;;;;;10.00;10.00;;;;;18.04;53.32;100007.69;5117693;28;8835;-62
2022/07/31 02:41:59;;;;;;;;;9.80;9.80;;;;;18.01;53.23;100005.34;5117090;28;8896;-62
2022/07/31 02:44:28;;;;;;;;;6.00;6.00;;;;;18.00;53.75;100011.72;5115996;28;8874;-62
2022/07/31 02:46:56;;;;;;;;;9.40;6.80;;;;;17.99;53.19;100007.34;5118466;28;8862;-62
2022/07/31 02:49:24;;;;;;;;;10.00;10.00;;;;;17.99;53.63;100012.72;5115609;28;8836;-62
2022/07/31 02:51:52;;;;;;;;;12.75;9.75;;;;;17.98;53.74;100011.03;5110224;28;8822;-63
2022/07/31 02:54:19;;;;;;;;;8.20;8.20;;;;;17.96;53.05;99999.59;5097894;28;9004;-62
2022/07/31 02:56:47;;;;;;;;;6.00;4.00;;;;;17.93;53.35;100005.31;5097568;28;8814;-62
2022/07/31 02:59:15;;;;;;;;;12.00;9.00;;;;;17.89;53.57;100003.13;5100606;28;8990;-62
2022/07/31 03:01:43;;;;;;;;;8.80;7.40;;;;;17.83;53.38;99996.53;5100616;28;8806;-62
2022/07/31 03:04:11;;;;;;;;;9.40;9.40;;;;;17.81;53.75;99997.72;5097686;28;8965;-63
2022/07/31 03:06:39;;;;;;;;;6.80;6.80;;;;;17.77;53.90;99993.69;5097442;28;8941;-63
2022/07/31 03:09:07;;;;;;;;;7.40;7.00;;;;;17.75;53.96;99990.31;5097605;28;8860;-62
2022/07/31 03:11:34;;;;;;;;;6.00;5.60;;;;;17.72;54.01;99991.50;5097974;28;8846;-61
2022/07/31 03:14:02;;;;;;;;;9.00;8.00;;;;;17.70;53.91;99981.88;5107885;28;8838;-62
2022/07/31 03:16:30;;;;;;;;;6.00;6.00;;;;;17.68;54.24;99978.53;5096534;28;8845;-62
2022/07/31 03:18:58;;;;;;;;;6.00;6.00;;;;;17.65;54.03;99981.53;5111145;28;8946;-62
2022/07/31 03:21:26;;;;;;;;;6.80;6.20;;;;;17.61;54.33;99981.03;5116260;28;8824;-61
2022/07/31 03:23:54;;;;;;;;;7.00;7.00;;;;;17.59;53.92;99976.81;5117069;28;8981;-62
2022/07/31 03:26:23;;;;;;;;;6.80;6.40;;;;;17.58;53.71;99980.50;5102067;28;8825;-62
2022/07/31 03:28:51;;;;;;;;;6.00;6.00;;;;;17.56;53.84;99979.84;5096583;28;8842;-62
2022/07/31 03:31:18;;;;;;;;;6.60;6.60;;;;;17.57;54.24;99978.81;5110053;28;8961;-61
2022/07/31 03:33:46;;;;;;;;;6.00;6.00;;;;;17.56;54.17;99980.69;5099527;28;8854;-63
2022/07/31 03:36:14;;;;;;;;;6.75;6.75;;;;;17.57;53.99;99987.75;5109041;28;8796;-61
2022/07/31 03:38:42;;;;;;;;;9.00;6.50;;;;;17.58;54.25;99977.81;5117452;28;8834;-62
2022/07/31 03:41:17;;;;;;;;;8.00;6.50;;;;;17.60;54.06;99983.91;5112476;28;8816;-62
2022/07/31 03:43:44;;;;;;;;;6.00;6.00;;;;;17.62;54.13;99981.88;5115305;28;8804;-62
2022/07/31 03:46:14;;;;;;;;;8.00;8.00;;;;;17.65;53.81;99981.53;5097894;28;8815;-62
2022/07/31 03:48:42;;;;;;;;;9.00;9.00;;;;;17.69;53.99;99977.50;5117104;28;8954;-62
2022/07/31 03:51:09;;;;;;;;;12.50;12.00;;;;;17.72;53.85;99977.16;5114889;28;8845;-62
2022/07/31 03:53:38;;;;;;;;;9.25;9.00;;;;;17.77;53.57;99974.84;5097685;28;8960;-62
2022/07/31 03:56:06;;;;;;;;;10.00;10.00;;;;;17.82;53.88;99977.84;5116021;28;8820;-62
2022/07/31 03:58:33;;;;;;;;;9.00;7.00;;;;;17.88;53.61;99977.19;5116525;28;8915;-62
2022/07/31 04:01:05;;;;;;;;;13.80;9.40;;;;;17.94;53.37;99974.69;5107025;28;8850;-62
2022/07/31 04:03:38;;;;;;;;;7.80;6.60;;;;;17.99;53.93;99975.00;5110915;28;9468;-62
2022/07/31 04:06:06;;;;;;;;;7.00;7.00;;;;;18.04;53.19;99964.56;5096363;28;8973;-61
2022/07/31 04:08:34;;;;;;;;;9.75;9.75;;;;;18.10;53.33;99969.28;5097026;28;8838;-62
2022/07/31 04:11:02;;;;;;;;;6.00;6.00;;;;;18.17;52.98;99967.59;5096148;28;8845;-62
2022/07/31 04:13:29;;;;;;;;;9.20;7.00;;;;;18.22;52.84;99965.22;5095286;28;8914;-62
2022/07/31 04:15:57;;;;;;;;;5.60;5.60;;;;;18.28;53.12;99966.41;5096052;28;8948;-61
2022/07/31 04:18:25;;;;;;;;;6.80;6.60;;;;;18.33;52.87;99967.63;5096530;28;8929;-62
2022/07/31 04:20:53;;;;;;;;;7.00;6.40;;;;;18.38;53.02;99969.78;5095866;28;8846;-62
2022/07/31 04:23:20;;;;;;;;;6.20;6.00;;;;;18.43;53.10;99979.06;5096289;28;8826;-62
2022/07/31 04:25:58;;;;;;;;;3.60;3.60;;;;;18.48;52.40;99970.44;5095858;28;8899;-61
2022/07/31 04:28:28;;;;;;;;;5.40;4.40;;;;;18.55;52.56;99976.84;5096152;28;8977;-61
2022/07/31 04:30:56;;;;;;;;;6.40;6.00;;;;;18.61;52.67;99971.59;5105098;28;9675;-62
2022/07/31 04:33:24;;;;;;;;;4.00;3.80;;;;;18.68;52.20;99964.50;5125899;27;8849;-62
2022/07/31 04:35:51;;;;;;;;;7.80;6.40;;;;;18.76;52.35;99958.25;5116791;28;8950;-62
2022/07/31 04:38:20;;;;;;;;;7.00;7.00;;;;;18.86;52.05;99957.03;5135811;27;8814;-62
2022/07/31 04:40:48;;;;;;;;;6.80;6.80;;;;;18.95;52.19;99958.69;5136852;27;8940;-62
2022/07/31 04:43:16;;;;;;;;;9.80;9.20;;;;;19.02;52.32;99948.88;5128913;27;8875;-62
2022/07/31 04:45:44;;;;;;;;;8.80;7.20;;;;;19.08;51.90;99948.16;5116986;28;8966;-63
2022/07/31 04:48:12;;;;;;;;;8.00;6.80;;;;;19.10;52.23;99940.72;5115571;28;8831;-62
2022/07/31 04:50:40;;;;;;;;;7.00;7.00;;;;;19.15;51.75;99951.00;5116399;27;8847;-62
2022/07/31 04:53:08;;;;;;;;;6.20;6.20;;;;;19.17;51.47;99959.75;5132531;27;9793;-62
2022/07/31 04:55:35;;;;;;;;;5.20;4.80;;;;;19.19;51.83;99965.84;5136066;27;8860;-62
2022/07/31 04:58:03;;;;;;;;;7.00;6.40;;;;;19.22;51.73;99969.06;5136364;27;8829;-63
2022/07/31 05:00:31;;;;;;;;;8.60;7.00;;;;;19.29;51.71;99961.94;5135812;27;8850;-62
2022/07/31 05:02:59;;;;;;;;;5.40;5.40;;;;;19.36;51.41;99957.47;5136312;27;8952;-62
2022/07/31 05:05:26;;;;;;;;;7.20;5.20;;;;;19.42;51.76;99959.47;5126351;27;8856;-62
2022/07/31 05:07:55;;;;;;;;;4.80;4.80;;;;;19.49;51.38;99960.44;5135707;27;8928;-62
2022/07/31 05:13:08;;;;;;;;;6.60;5.20;;;;;19.58;51.44;99967.47;5135651;27;8826;-63
2022/07/31 05:15:36;;;;;;;;;7.00;5.80;;;;;19.61;51.67;99969.00;5136509;27;8817;-63
2022/07/31 05:18:06;;;;;;;;;6.60;6.60;;;;;19.65;51.12;99973.03;5136284;27;8936;-63
2022/07/31 05:20:34;;;;;;;;;4.60;4.60;;;;;19.67;51.33;99958.34;5136177;27;8825;-62
2022/07/31 05:23:01;;;;;;;;;5.60;5.60;;;;;19.69;51.15;99953.59;5134089;27;8968;-64
2022/07/31 05:25:33;;;;;;;;;8.40;6.20;;;;;19.73;51.12;99962.16;5120119;28;8840;-62
2022/07/31 05:28:01;;;;;;;;;5.20;5.20;;;;;19.80;50.99;99960.44;5138809;27;9471;-62
2022/07/31 05:30:28;;;;;;;;;7.80;7.80;;;;;19.92;51.07;99970.63;5135042;27;8847;-63
2022/07/31 05:32:57;;;;;;;;;7.00;7.00;;;;;20.05;50.55;99962.81;5114319;28;8869;-63
2022/07/31 05:35:25;;;;;;;;;7.00;7.00;;;;;20.19;50.75;99961.97;5105052;28;8830;-62
2022/07/31 05:37:53;;;;;;;;;5.80;5.00;;;;;20.32;50.20;99970.31;5111212;28;8826;-62
2022/07/31 05:40:20;;;;;;;;;7.20;7.00;;;;;20.45;50.45;99973.25;5118240;28;8859;-62
2022/07/31 05:42:48;;;;;;;;;7.80;6.20;;;;;20.56;50.42;99967.38;5117736;28;8884;-62
2022/07/31 05:45:16;;;;;;;;;7.00;5.80;;;;;20.67;50.25;99962.34;5117748;28;8812;-62
2022/07/31 05:47:44;;;;;;;;;5.00;4.60;;;;;20.80;49.64;99972.53;5117457;28;8820;-62
2022/07/31 05:50:13;;;;;;;;;7.00;7.00;;;;;20.94;49.22;99955.47;5117379;28;8832;-62
2022/07/31 05:52:41;;;;;;;;;4.60;4.60;;;;;21.08;49.40;99970.88;5105839;28;8826;-62
2022/07/31 05:55:09;;;;;;;;;6.60;6.60;;;;;21.19;49.14;99968.53;5096825;28;8830;-63
2022/07/31 05:57:37;;;;;;;;;8.40;7.60;;;;;21.29;48.70;99968.22;5108571;28;9627;-63
2022/07/31 06:00:05;;;;;;;;;6.60;6.60;;;;;21.37;48.78;99966.25;5115132;28;8979;-62
2022/07/31 06:02:32;;;;;;;;;7.00;5.40;;;;;21.43;48.92;99957.38;5097427;28;8822;-62
2022/07/31 06:05:00;;;;;;;;;3.20;3.20;;;;;21.49;48.53;99962.00;5097982;28;8842;-63
2022/07/31 06:07:29;;;;;;;;;4.80;4.40;;;;;21.54;48.81;99964.16;5100530;28;8822;-62
2022/07/31 06:09:56;;;;;;;;;5.40;5.00;;;;;21.56;48.81;99956.69;5119066;28;9603;-62
2022/07/31 06:12:24;;;;;;;;;7.00;7.00;;;;;21.59;48.68;99953.59;5118685;28;9491;-62
2022/07/31 06:14:52;;;;;;;;;7.80;7.80;;;;;21.64;48.70;99959.28;5118027;28;8816;-63
2022/07/31 06:17:20;;;;;;;;;10.80;9.20;;;;;21.72;48.64;99959.19;5117235;28;8831;-62
2022/07/31 06:19:48;;;;;;;;;7.80;7.80;;;;;21.80;48.39;99961.78;5117209;28;8823;-62
2022/07/31 06:22:16;;;;;;;;;9.20;7.20;;;;;21.88;48.77;99953.50;5108184;28;9602;-62
2022/07/31 06:24:44;;;;;;;;;6.60;6.60;;;;;21.94;48.43;99966.31;5115050;28;8824;-62
2022/07/31 06:27:12;;;;;;;;;3.20;3.20;;;;;22.01;48.94;99946.31;5117650;28;8823;-62
2022/07/31 06:30:00;;;;;;;;;8.00;7.00;;;;;22.09;48.39;99950.78;5116715;28;8828;-62
2022/07/31 06:32:28;;;;;;;;;8.00;7.00;;;;;22.13;48.91;99946.63;5096518;28;8822;-63
2022/07/31 06:34:55;;;;;;;;;5.00;5.00;;;;;22.16;48.30;99943.56;5096101;28;8846;-62
2022/07/31 06:37:25;;;;;;;;;9.20;8.20;;;;;22.21;48.61;99941.06;5096802;28;8902;-62
2022/07/31 06:39:52;;;;;;;;;6.20;5.20;;;;;22.24;48.26;99937.97;5109214;28;8951;-62
2022/07/31 06:42:22;;;;;;;;;6.20;6.20;;;;;22.27;48.33;99943.00;5117141;28;8812;-62
2022/07/31 06:44:50;;;;;;;;;6.20;6.20;;;;;22.29;48.63;99933.63;5117754;28;9509;-62
2022/07/31 06:47:18;;;;;;;;;6.00;6.00;;;;;22.40;48.65;99943.13;5117807;28;8990;-62
2022/07/31 06:49:46;;;;;;;;;6.20;6.20;;;;;22.50;48.46;99941.78;5115875;28;9610;-63
2022/07/31 06:52:14;;;;;;;;;7.80;7.80;;;;;22.70;48.21;99937.28;5113873;28;8946;-63
2022/07/31 06:54:42;;;;;;;;;5.80;5.20;;;;;22.98;47.72;99945.41;5098250;28;8948;-62
2022/07/31 06:57:11;;;;;;;;;8.00;8.00;;;;;23.21;47.06;99938.66;5097990;28;8903;-62
2022/07/31 06:59:39;;;;;;;;;5.80;5.80;;;;;23.38;46.84;99930.97;5097809;28;8996;-62
2022/07/31 07:02:07;;;;;;;;;5.40;5.40;;;;;23.58;46.46;99929.16;5114438;28;8800;-62
2022/07/31 07:04:35;;;;;;;;;5.00;5.00;;;;;23.70;46.50;99924.78;5098188;28;8842;-62
2022/07/31 07:07:22;;;;;;;;;4.40;4.40;;;;;23.76;46.61;99919.34;5097665;28;8973;-62
2022/07/31 07:09:57;;;;;;;;;4.80;4.80;;;;;23.81;46.88;99916.03;5109271;28;8804;-62
2022/07/31 07:12:25;;;;;;;;;4.40;4.40;;;;;23.88;46.83;99925.06;5117951;28;8865;-62
2022/07/31 07:14:54;;;;;;;;;6.00;6.00;;;;;23.94;46.43;99921.50;5117912;28;8851;-62
2022/07/31 07:17:22;;;;;;;;;3.40;3.40;;;;;23.98;46.26;99926.31;5117078;28;8959;-62
2022/07/31 07:19:57;;;;;;;;;5.00;5.00;;;;;24.03;46.67;99920.25;5117919;28;8840;-63
2022/07/31 07:22:25;;;;;;;;;5.20;5.20;;;;;24.09;46.78;99920.28;5117036;28;9489;-62
2022/07/31 07:24:58;;;;;;;;;3.20;3.20;;;;;24.09;46.83;99925.72;5116983;28;8804;-63
2022/07/31 07:27:26;;;;;;;;;3.80;3.80;;;;;24.05;46.52;99921.72;5116744;28;8812;-62
2022/07/31 07:29:54;;;;;;;;;3.20;3.20;;;;;24.00;47.33;99920.69;5117246;28;9489;-63
2022/07/31 07:32:21;;;;;;;;;2.80;2.80;;;;;23.92;47.14;99920.88;5115780;28;8859;-63
2022/07/31 07:34:49;;;;;;;;;2.80;2.80;;;;;23.85;47.31;99925.44;5137432;27;8836;-62
2022/07/31 07:37:27;;;;;;;;;4.60;4.00;;;;;23.76;47.56;99918.53;5137484;27;8825;-62
2022/07/31 07:39:54;;;;;;;;;3.40;3.40;;;;;23.73;47.51;99917.06;5125954;27;8827;-62
2022/07/31 07:42:22;;;;;;;;;3.40;3.40;;;;;23.71;48.05;99916.44;5125410;27;8808;-63
2022/07/31 07:44:50;;;;;;;;;3.20;2.40;;;;;23.78;47.92;99916.44;5117013;28;8836;-63
2022/07/31 07:47:18;;;;;;;;;4.00;3.40;;;;;23.89;47.99;99910.44;5116868;28;8834;-63
2022/07/31 07:49:45;;;;;;;;;5.20;4.80;;;;;24.01;47.89;99906.88;5117365;28;8989;-63
2022/07/31 07:52:13;;;;;;;;;5.60;5.60;;;;;24.14;47.27;99908.75;5118749;27;8812;-62
2022/07/31 07:54:42;;;;;;;;;6.20;6.20;;;;;24.18;47.33;99904.56;5136927;27;8817;-63
2022/07/31 07:57:10;;;;;;;;;5.20;3.80;;;;;24.19;47.29;99906.25;5137288;27;9537;-62
2022/07/31 07:59:38;;;;;;;;;5.00;4.60;;;;;24.19;47.29;99896.19;5127974;27;8843;-62
2022/07/31 08:02:05;;;;;;;;;5.80;5.80;;;;;24.18;47.92;99889.06;5122039;27;8813;-62
2022/07/31 08:04:33;;;;;;;;;2.80;2.80;;;;;24.18;47.09;99894.50;5137321;27;8829;-62
2022/07/31 08:07:03;;;;;;;;;6.40;6.00;;;;;24.23;47.65;99883.00;5136836;27;9474;-63
2022/07/31 08:09:31;;;;;;;;;6.00;5.20;;;;;24.33;47.47;99875.22;5137557;27;8979;-65
2022/07/31 08:11:59;;;;;;;;;2.00;2.00;;;;;24.46;47.02;99880.66;5135569;27;8889;-64
2022/07/31 08:14:26;;;;;;;;;5.00;5.00;;;;;24.63;46.71;99881.91;5132057;27;8816;-62
2022/07/31 08:16:55;;;;;;;;;2.40;2.40;;;;;24.71;46.62;99885.25;5116551;28;8832;-62
2022/07/31 08:19:23;;;;;;;;;5.00;4.20;;;;;24.70;46.57;99883.56;5116243;28;8836;-62
2022/07/31 08:21:51;;;;;;;;;5.80;5.00;;;;;24.70;47.10;99877.28;5116371;28;8843;-62
2022/07/31 08:24:19;;;;;;;;;5.00;5.00;;;;;24.71;46.95;99873.53;5116554;28;8884;-61
2022/07/31 08:29:37;;;;;;;;;6.20;6.00;;;;;24.78;47.07;99880.63;5115799;27;8912;-62
2022/07/31 08:32:09;;;;;;;;;3.00;3.00;;;;;24.86;46.71;99877.66;5116516;28;8831;-62
2022/07/31 08:34:36;;;;;;;;;4.20;4.20;;;;;24.98;46.54;99880.53;5096502;28;9620;-62
2022/07/31 08:37:09;;;;;;;;;5.00;5.00;;;;;25.09;45.97;99872.53;5096761;28;9524;-63
2022/07/31 08:39:56;;;;;;;;;2.80;2.80;;;;;25.20;46.39;99876.47;5080934;28;8890;-62
2022/07/31 08:42:24;;;;;;;;;5.00;5.00;;;;;25.23;45.86;99885.06;5096329;28;8822;-62
2022/07/31 08:44:52;;;;;;;;;2.40;2.40;;;;;25.26;46.41;99883.81;5107727;28;8912;-62
2022/07/31 08:47:20;;;;;;;;;3.80;3.80;;;;;25.25;46.63;99884.88;5100010;28;8837;-62
2022/07/31 08:49:48;;;;;;;;;1.80;0.80;;;;;25.28;46.56;99887.16;5095559;28;8936;-62
2022/07/31 08:52:15;;;;;;;;;2.20;2.20;;;;;25.33;46.25;99887.34;5098159;28;8822;-62
2022/07/31 08:54:44;;;;;;;;;4.20;4.20;;;;;25.35;46.45;99886.06;5115975;28;8812;-62
2022/07/31 08:57:12;;;;;;;;;6.00;6.00;;;;;25.32;46.51;99893.84;5115820;28;9007;-62
2022/07/31 08:59:41;;;;;;;;;3.40;3.00;;;;;25.27;46.66;99899.13;5113756;28;9010;-62
2022/07/31 09:02:08;;;;;;;;;5.20;4.20;;;;;25.15;46.50;99893.47;5113894;28;8908;-62
2022/07/31 09:04:36;;;;;;;;;5.40;5.40;;;;;25.03;46.58;99908.81;5116319;28;8816;-62
2022/07/31 09:07:04;;;;;;;;;2.80;2.80;;;;;24.93;47.32;99907.59;5115006;28;8815;-62
2022/07/31 09:09:32;;;;;;;;;2.60;2.60;;;;;24.84;47.44;99908.88;5095349;28;8857;-62
2022/07/31 09:12:19;;;;;;;;;6.00;5.60;;;;;24.73;47.60;99895.94;5095363;28;8829;-62
2022/07/31 09:15:00;;;;;;;;;3.00;3.00;;;;;24.66;48.06;99903.28;5102760;28;8823;-62
2022/07/31 09:17:27;;;;;;;;;5.00;5.00;;;;;24.65;47.72;99907.06;5104108;28;8826;-63
2022/07/31 09:19:56;;;;;;;;;3.00;3.00;;;;;24.61;47.63;99895.75;5096201;28;8817;-62
2022/07/31 09:22:24;;;;;;;;;3.00;3.00;;;;;24.57;47.87;99896.41;5104024;28;8826;-64
2022/07/31 09:24:52;;;;;;;;;5.00;3.00;;;;;24.48;48.41;99889.44;5110384;28;8820;-64
2022/07/31 09:27:19;;;;;;;;;3.00;3.00;;;;;24.41;48.37;99894.91;5106875;28;8887;-63
2022/07/31 09:29:48;;;;;;;;;3.00;3.00;;;;;24.36;48.16;99899.31;5095205;28;8842;-66
2022/07/31 09:32:16;;;;;;;;;6.00;5.20;;;;;24.30;48.69;99897.44;5111700;28;8808;-66
2022/07/31 09:34:43;;;;;;;;;3.00;3.00;;;;;24.29;48.54;99895.78;5099572;28;8836;-62
2022/07/31 09:37:11;;;;;;;;;5.00;5.00;;;;;24.27;48.74;99892.44;5115669;28;8847;-63
2022/07/31 09:39:39;;;;;;;;;6.20;5.80;;;;;24.21;48.89;99894.09;5115925;28;8965;-62
2022/07/31 09:42:18;;;;;;;;;4.20;3.00;;;;;24.28;49.18;99899.53;5115371;28;8804;-62
2022/07/31 09:44:47;;;;;;;;;5.00;5.00;;;;;24.39;48.46;99897.00;5114957;28;8971;-62
2022/07/31 09:47:15;;;;;;;;;5.00;4.20;;;;;24.46;48.29;99905.16;5103932;28;8837;-63
2022/07/31 09:49:43;;;;;;;;;5.00;5.00;;;;;24.48;48.23;99889.44;5107830;28;8834;-65
2022/07/31 09:52:10;;;;;;;;;3.00;3.00;;;;;24.50;48.31;99887.38;5103657;28;8806;-63
2022/07/31 09:54:39;;;;;;;;;1.00;1.00;;;;;24.51;48.21;99889.84;5095617;28;8806;-63
2022/07/31 09:57:06;;;;;;;;;1.00;1.00;;;;;24.54;48.07;99894.03;5101327;28;8858;-62
2022/07/31 09:59:34;;;;;;;;;2.80;2.40;;;;;24.53;47.90;99893.22;5115553;28;9556;-63
2022/07/31 10:02:02;;;;;;;;;1.00;1.00;;;;;24.55;48.37;99902.03;5114996;28;9566;-63
2022/07/31 10:04:29;;;;;;;;;6.20;4.60;;;;;24.62;48.16;99893.84;5114232;28;8820;-64
2022/07/31 10:06:58;;;;;;;;;2.20;2.20;;;;;24.68;47.95;99904.75;5112227;28;8824;-62
2022/07/31 10:09:25;;;;;;;;;4.20;3.80;;;;;24.72;48.15;99902.44;5114842;28;8847;-63
2022/07/31 10:11:53;;;;;;;;;3.80;3.80;;;;;24.71;47.66;99901.59;5117563;28;8872;-62
2022/07/31 10:14:21;;;;;;;;;5.60;5.60;;;;;24.74;47.45;99903.88;5118373;28;8860;-63
2022/07/31 10:16:50;;;;;;;;;2.00;2.00;;;;;24.72;48.24;99902.44;5114055;28;8826;-63
2022/07/31 10:19:18;;;;;;;;;3.80;3.80;;;;;24.74;48.03;99900.34;5098008;28;8852;-63
2022/07/31 10:21:45;;;;;;;;;1.40;1.40;;;;;24.75;48.35;99904.72;5101866;28;8796;-63
2022/07/31 10:24:13;;;;;;;;;5.00;4.60;;;;;24.83;47.75;99899.91;5117975;28;9465;-67
2022/07/31 10:26:42;;;;;;;;;3.80;3.00;;;;;24.88;47.61;99891.06;5114989;28;9374;-62
2022/07/31 10:29:27;;;;;;;;;2.00;2.00;;;;;24.92;47.58;99898.59;5097806;28;8853;-63
2022/07/31 10:31:59;;;;;;;;;4.60;4.60;;;;;24.92;47.94;99895.03;5097546;28;8910;-63
2022/07/31 10:34:27;;;;;;;;;3.00;3.00;;;;;24.98;47.28;99894.16;5097727;28;8826;-63
2022/07/31 10:36:55;;;;;;;;;2.60;2.40;;;;;24.97;47.74;99878.88;5101949;28;8812;-63
2022/07/31 10:39:23;;;;;;;;;3.00;3.00;;;;;24.98;47.53;99881.41;5118462;28;8920;-63
2022/07/31 10:41:51;;;;;;;;;5.00;5.00;;;;;25.00;47.65;99872.97;5118325;28;8838;-63
2022/07/31 10:44:21;;;;;;;;;4.20;4.20;;;;;25.06;47.59;99872.97;5109027;28;8817;-62
2022/07/31 10:46:49;;;;;;;;;5.00;3.80;;;;;25.21;47.60;99875.41;5097142;28;9463;-62
2022/07/31 10:49:16;;;;;;;;;5.00;4.20;;;;;25.33;47.49;99877.25;5105828;28;8824;-63
2022/07/31 10:51:44;;;;;;;;;1.20;1.20;;;;;25.37;47.38;99875.78;5101604;28;8848;-63
2022/07/31 10:54:13;;;;;;;;;4.40;3.80;;;;;25.40;47.14;99871.78;5108376;28;8824;-63
2022/07/31 10:56:41;;;;;;;;;3.00;2.00;;;;;25.40;46.88;99875.34;5100069;28;9433;-62
2022/07/31 10:59:09;;;;;;;;;2.20;2.20;;;;;25.45;47.20;99871.94;5118045;28;8828;-63
2022/07/31 11:01:38;;;;;;;;;3.00;3.00;;;;;25.52;46.90;99868.94;5117900;28;8917;-63
2022/07/31 11:04:19;;;;;;;;;5.00;3.80;;;;;25.66;46.34;99864.28;5117108;28;8828;-63
2022/07/31 11:06:50;;;;;;;;;3.00;3.00;;;;;25.78;46.33;99862.47;5108994;28;8818;-63
2022/07/31 11:09:18;;;;;;;;;5.00;3.00;;;;;26.01;45.57;99862.75;5113470;28;8844;-63
2022/07/31 11:11:45;;;;;;;;;2.80;2.80;;;;;26.28;45.71;99854.09;5114860;28;8854;-62
2022/07/31 11:14:13;;;;;;;;;3.00;3.00;;;;;26.48;45.08;99862.13;5097150;28;8963;-63
2022/07/31 11:16:41;;;;;;;;;2.60;2.20;;;;;26.62;45.13;99850.00;5097488;28;8930;-63
2022/07/31 11:19:09;;;;;;;;;3.00;3.00;;;;;26.73;45.00;99858.28;5097044;28;8849;-63
2022/07/31 11:21:37;;;;;;;;;3.80;3.40;;;;;26.77;44.43;99859.50;5102199;28;8830;-63
2022/07/31 11:24:06;;;;;;;;;3.00;2.60;;;;;26.79;44.84;99848.34;5116960;28;8826;-63
2022/07/31 11:26:38;;;;;;;;;1.40;1.40;;;;;26.79;44.75;99857.38;5115083;28;8827;-63
2022/07/31 11:29:08;;;;;;;;;3.00;2.80;;;;;26.85;44.80;99864.66;5097054;28;8949;-64
2022/07/31 11:31:56;;;;;;;;;3.80;3.80;;;;;26.74;44.59;99854.50;5097015;28;8860;-62
2022/07/31 11:34:24;;;;;;;;;4.60;4.20;;;;;26.55;45.42;99857.47;5096810;28;8838;-63
2022/07/31 11:36:52;;;;;;;;;3.00;3.00;;;;;26.39;45.38;99856.09;5096483;28;9526;-63
2022/07/31 11:39:22;;;;;;;;;5.60;5.60;;;;;26.29;45.52;99844.88;5096582;28;8852;-63
2022/07/31 11:42:02;;;;;;;;;5.80;4.20;;;;;26.28;45.63;99856.00;5116011;28;8830;-62
2022/07/31 11:44:31;;;;;;;;;4.80;3.40;;;;;26.38;45.89;99846.25;5107060;28;8826;-62
2022/07/31 11:46:59;;;;;;;;;5.00;5.00;;;;;26.63;45.32;99851.69;5101217;28;8828;-62
2022/07/31 11:49:31;;;;;;;;;4.80;4.80;;;;;27.04;44.45;99843.59;5117134;28;8916;-63
2022/07/31 11:52:15;;;;;;;;;5.80;4.80;;;;;27.57;43.61;99844.56;5096198;28;8802;-62